Thunder radar more information blitzortung!


Radar de pluja more information rain snow radar


Visita la nostra xarxa de llocs de meteo:

Template documentation
and downloads

And another site



No particular awareness of the weather is required.    There are no Weather-warnings

Pagina Historial Weather Underground text

Diari Resum Juny 7, 2017 Unitats:  Mètric    Imperial   Tant
« Previous Dia
SegĂźent Dia »
Diari Setmana Mensual Anual Personalitzada
  Maxima: Minima: Media:
Temperatura: 24.6 °C 17.1 °C 20.2 °C
Punt de rosada: 14.7 °C 8.6 °C 12.8 °C
Humitat: 81 % 51 % 63 %
Wind Speed: 16.7 km/h 0.0 km/h 6.6 km/h
RĂ fegues de vent: 16.7 km/h - -
Vent:- - SSW
Pression baro: 1021.9 hPa 1017.8 hPa -
Precipitacions: 0.0 mm    
Historical Graphs
 
 
Dades de taula per Juny 7, 2017
Temps Temperatura Punt de rosada Pression baro Vent Wind Speed RĂ fegues de vent Humitat Rainfall Rate (Hourly)
00:03 19.0 °C 14.1 °C 1017.8 hPa SSE 3.7 km/h 3.7 km/h 73 % 0.0 mm
00:05 17.1 °C 13.6 °C 1018.8 hPa SSW 3.2 km/h 3.2 km/h 80 % 0.0 mm
00:08 19.0 °C 14.1 °C 1017.8 hPa ESE 5.6 km/h 5.6 km/h 73 % 0.0 mm
00:15 17.1 °C 13.6 °C 1018.8 hPa SW 3.2 km/h 6.4 km/h 80 % 0.0 mm
00:25 17.2 °C 13.9 °C 1018.8 hPa SW 1.6 km/h 3.2 km/h 81 % 0.0 mm
00:35 17.2 °C 13.9 °C 1018.8 hPa SW 1.6 km/h 3.2 km/h 81 % 0.0 mm
00:45 17.3 °C 14.0 °C 1019.9 hPa SW 1.6 km/h 4.8 km/h 81 % 0.0 mm
00:55 17.3 °C 14.0 °C 1019.9 hPa SW 1.6 km/h 4.8 km/h 81 % 0.0 mm
01:05 17.3 °C 14.0 °C 1019.9 hPa SW 1.6 km/h 1.6 km/h 81 % 0.0 mm
01:15 17.3 °C 14.0 °C 1019.9 hPa SW 1.6 km/h 4.8 km/h 81 % 0.0 mm
01:25 17.5 °C 14.2 °C 1019.9 hPa SW 1.6 km/h 3.2 km/h 81 % 0.0 mm
01:35 17.3 °C 13.4 °C 1019.9 hPa WSW 3.2 km/h 6.4 km/h 78 % 0.0 mm
01:45 17.3 °C 12.8 °C 1019.9 hPa WSW 4.8 km/h 6.4 km/h 75 % 0.0 mm
01:55 17.1 °C 11.8 °C 1019.9 hPa West 1.6 km/h 4.8 km/h 71 % 0.0 mm
02:05 17.2 °C 11.2 °C 1019.9 hPa WNW 3.2 km/h 6.4 km/h 68 % 0.0 mm
02:15 17.4 °C 11.2 °C 1019.9 hPa WNW 4.8 km/h 8.0 km/h 67 % 0.0 mm
02:25 17.2 °C 10.6 °C 1019.9 hPa West 4.8 km/h 6.4 km/h 65 % 0.0 mm
02:35 17.2 °C 10.3 °C 1019.9 hPa West 3.2 km/h 4.8 km/h 64 % 0.0 mm
02:45 17.7 °C 10.6 °C 1020.9 hPa West 3.2 km/h 3.2 km/h 63 % 0.0 mm
02:55 18.2 °C 10.8 °C 1019.9 hPa West 3.2 km/h 6.4 km/h 62 % 0.0 mm
03:05 18.0 °C 10.4 °C 1019.9 hPa West 1.6 km/h 8.0 km/h 61 % 0.0 mm
03:15 18.1 °C 10.2 °C 1020.9 hPa West 3.2 km/h 4.8 km/h 60 % 0.0 mm
03:25 18.2 °C 10.1 °C 1020.9 hPa West 4.8 km/h 6.4 km/h 59 % 0.0 mm
03:35 18.4 °C 10.2 °C 1020.9 hPa West 3.2 km/h 4.8 km/h 59 % 0.0 mm
03:45 18.5 °C 9.8 °C 1020.9 hPa WSW 4.8 km/h 4.8 km/h 57 % 0.0 mm
03:55 18.5 °C 9.3 °C 1021.9 hPa West 8.0 km/h 8.0 km/h 55 % 0.0 mm
04:05 18.4 °C 8.9 °C 1021.9 hPa West 1.6 km/h 4.8 km/h 54 % 0.0 mm
04:15 18.6 °C 9.1 °C 1021.9 hPa West 1.6 km/h 3.2 km/h 54 % 0.0 mm
04:25 18.7 °C 8.9 °C 1021.9 hPa WSW 3.2 km/h 3.2 km/h 53 % 0.0 mm
04:35 18.7 °C 9.2 °C 1021.9 hPa Calm   3.2 km/h 54 % 0.0 mm
04:45 18.7 °C 8.9 °C 1021.9 hPa WSW 1.6 km/h 3.2 km/h 53 % 0.0 mm
04:55 19.0 °C 8.9 °C 1021.9 hPa WSW 3.2 km/h 4.8 km/h 52 % 0.0 mm
05:05 19.0 °C 8.6 °C 1021.9 hPa SSW 1.6 km/h 4.8 km/h 51 % 0.0 mm
05:15 19.4 °C 9.3 °C 1021.9 hPa Calm   1.6 km/h 52 % 0.0 mm
05:25 19.4 °C 9.3 °C 1021.9 hPa SSW 1.6 km/h 6.4 km/h 52 % 0.0 mm
05:35 19.5 °C 9.7 °C 1021.9 hPa Calm   1.6 km/h 53 % 0.0 mm
10:36 19.5 °C 9.7 °C 1021.9 hPa South 3.9 km/h 3.9 km/h 53 % 0.0 mm
10:41 19.2 °C 9.4 °C 1021.9 hPa WSW 5.6 km/h 5.6 km/h 53 % 0.0 mm
10:46 19.1 °C 9.6 °C 1021.9 hPa WSW 3.7 km/h 3.7 km/h 54 % 0.0 mm
10:51 19.1 °C 9.3 °C 1020.9 hPa SSW 3.7 km/h 3.7 km/h 53 % 0.0 mm
10:56 19.1 °C 9.6 °C 1020.9 hPa SW 3.7 km/h 3.7 km/h 54 % 0.0 mm
11:01 19.2 °C 9.7 °C 1020.9 hPa SW 2.3 km/h   54 % 0.0 mm
11:06 19.1 °C 9.8 °C 1020.9 hPa South 3.7 km/h 3.7 km/h 55 % 0.0 mm
11:11 18.9 °C 9.9 °C 1020.9 hPa SW 5.6 km/h 5.6 km/h 56 % 0.0 mm
11:16 18.8 °C 10.1 °C 1020.9 hPa SW 5.3 km/h 5.3 km/h 57 % 0.0 mm
11:21 18.8 °C 10.1 °C 1020.9 hPa SW 3.7 km/h 3.7 km/h 57 % 0.0 mm
11:26 18.7 °C 10.3 °C 1020.9 hPa SW 5.6 km/h 5.6 km/h 58 % 0.0 mm
11:31 18.5 °C 10.6 °C 1020.9 hPa SW 9.3 km/h 9.3 km/h 60 % 0.0 mm
11:36 18.4 °C 10.7 °C 1021.9 hPa SW 4.2 km/h 4.7 km/h 61 % 0.0 mm
11:41 18.6 °C 11.2 °C 1021.9 hPa SW 4.7 km/h 4.7 km/h 62 % 0.0 mm
11:46 19.0 °C 11.6 °C 1021.9 hPa SW 5.6 km/h 5.6 km/h 62 % 0.0 mm
11:51 19.3 °C 12.1 °C 1021.9 hPa SSE 3.5 km/h 3.5 km/h 63 % 0.0 mm
11:56 19.5 °C 12.3 °C 1021.9 hPa South 3.7 km/h 3.7 km/h 63 % 0.0 mm
12:01 19.5 °C 12.5 °C 1021.9 hPa SW 5.3 km/h 5.3 km/h 64 % 0.0 mm
12:06 19.9 °C 12.7 °C 1021.9 hPa SSE 3.7 km/h 3.7 km/h 63 % 0.0 mm
12:11 19.3 °C 12.1 °C 1021.9 hPa ESE 7.4 km/h 7.4 km/h 63 % 0.0 mm
12:16 19.3 °C 12.1 °C 1021.9 hPa NE 6.4 km/h 6.4 km/h 63 % 0.0 mm
12:21 19.8 °C 12.3 °C 1021.9 hPa NE 4.7 km/h 4.7 km/h 62 % 0.0 mm
12:26 20.3 °C 12.6 °C 1021.9 hPa NNE 9.0 km/h 9.0 km/h 61 % 0.0 mm
12:31 20.0 °C 12.2 °C 1021.9 hPa East 7.4 km/h 7.4 km/h 61 % 0.0 mm
12:36 20.1 °C 12.6 °C 1020.9 hPa ESE 7.4 km/h 7.4 km/h 62 % 0.0 mm
12:41 19.9 °C 12.7 °C 1020.9 hPa ESE 7.4 km/h 7.4 km/h 63 % 0.0 mm
12:46 20.2 °C 12.9 °C 1020.9 hPa ESE 6.1 km/h 6.1 km/h 63 % 0.0 mm
12:51 20.2 °C 13.2 °C 1021.9 hPa NE 5.6 km/h 5.6 km/h 64 % 0.0 mm
12:56 20.2 °C 13.2 °C 1021.9 hPa ESE 9.7 km/h 9.7 km/h 64 % 0.0 mm
13:01 20.5 °C 13.7 °C 1021.9 hPa ESE 9.5 km/h 9.5 km/h 65 % 0.0 mm
13:06 20.1 °C 13.3 °C 1020.9 hPa East 16.1 km/h 16.1 km/h 65 % 0.0 mm
13:16 20.5 °C 13.7 °C 1020.9 hPa SE 11.1 km/h 11.1 km/h 65 % 0.0 mm
13:21 20.4 °C 13.6 °C 1020.9 hPa ENE 7.4 km/h 7.4 km/h 65 % 0.0 mm
13:26 20.5 °C 13.7 °C 1020.9 hPa SSE 11.1 km/h 11.1 km/h 65 % 0.0 mm
13:31 20.2 °C 13.4 °C 1020.9 hPa East 13.0 km/h 13.0 km/h 65 % 0.0 mm
13:36 20.1 °C 13.3 °C 1019.9 hPa SSE 11.1 km/h 11.1 km/h 65 % 0.0 mm
13:41 20.2 °C 13.7 °C 1019.9 hPa ESE 11.1 km/h 11.1 km/h 66 % 0.0 mm
13:47 20.0 °C 13.4 °C 1019.9 hPa East 11.1 km/h 11.1 km/h 66 % 0.0 mm
13:52 20.1 °C 13.8 °C 1019.9 hPa East 6.4 km/h 6.4 km/h 67 % 0.0 mm
13:57 20.2 °C 13.7 °C 1019.9 hPa SW 5.6 km/h 5.6 km/h 66 % 0.0 mm
14:02 20.6 °C 14.0 °C 1019.9 hPa South 5.6 km/h 5.6 km/h 66 % 0.0 mm
14:07 21.0 °C 14.2 °C 1019.9 hPa ESE 6.4 km/h 6.4 km/h 65 % 0.0 mm
14:12 21.2 °C 14.3 °C 1019.9 hPa South 3.7 km/h 3.7 km/h 65 % 0.0 mm
14:17 21.9 °C 14.6 °C 1019.9 hPa ESE 13.0 km/h 13.0 km/h 63 % 0.0 mm
14:22 22.2 °C 14.1 °C 1019.9 hPa SW 16.7 km/h 16.7 km/h 60 % 0.0 mm
14:27 22.5 °C 14.1 °C 1019.9 hPa South 5.6 km/h 5.6 km/h 59 % 0.0 mm
14:32 23.0 °C 14.6 °C 1019.9 hPa SW 9.3 km/h 9.3 km/h 59 % 0.0 mm
14:37 23.1 °C 14.7 °C 1019.9 hPa SSW 5.6 km/h 5.6 km/h 59 % 0.0 mm
14:42 23.2 °C 14.2 °C 1019.9 hPa SSW 11.1 km/h 11.1 km/h 57 % 0.0 mm
14:43 23.3 °C 14.3 °C 1019.9 hPa SW 9.3 km/h 9.3 km/h 57 % 0.0 mm
14:48 23.7 °C 14.4 °C 1019.9 hPa SW 12.6 km/h 12.6 km/h 56 % 0.0 mm
14:53 23.3 °C 13.8 °C 1019.9 hPa WSW 11.1 km/h 11.1 km/h 55 % 0.0 mm
14:58 22.9 °C 13.4 °C 1019.9 hPa SW 12.2 km/h 12.2 km/h 55 % 0.0 mm
15:03 23.0 °C 13.4 °C 1018.8 hPa SSW 9.3 km/h 9.3 km/h 55 % 0.0 mm
15:08 23.9 °C 14.0 °C 1018.8 hPa West 5.6 km/h 5.6 km/h 54 % 0.0 mm
15:13 24.4 °C 14.2 °C 1018.8 hPa SW 9.3 km/h 9.3 km/h 53 % 0.0 mm
15:18 24.6 °C 14.4 °C 1019.9 hPa South 9.3 km/h 9.3 km/h 53 % 0.0 mm
15:23 24.1 °C 13.6 °C 1019.9 hPa South 3.7 km/h 3.9 km/h 52 % 0.0 mm
15:28 23.9 °C 13.4 °C 1019.9 hPa South 13.0 km/h 13.0 km/h 52 % 0.0 mm
15:33 24.0 °C 13.8 °C 1019.9 hPa SW 7.4 km/h 7.4 km/h 53 % 0.0 mm
15:38 23.9 °C 13.7 °C 1019.9 hPa SW 9.3 km/h 9.3 km/h 53 % 0.0 mm
15:43 23.3 °C 13.2 °C 1019.9 hPa North 5.6 km/h 5.6 km/h 53 % 0.0 mm
15:48 23.3 °C 13.2 °C 1019.9 hPa South 7.4 km/h 7.4 km/h 53 % 0.0 mm
15:53 23.1 °C 13.0 °C 1019.9 hPa SSE 9.3 km/h 9.3 km/h 53 % 0.0 mm
15:58 23.5 °C 13.4 °C 1019.9 hPa SW 13.0 km/h 13.0 km/h 53 % 0.0 mm
16:03 23.2 °C 13.1 °C 1018.8 hPa SW 11.1 km/h 11.1 km/h 53 % 0.0 mm
16:08 23.7 °C 13.6 °C 1018.8 hPa WSW 13.0 km/h 13.0 km/h 53 % 0.0 mm
16:13 23.7 °C 13.6 °C 1018.8 hPa SW 9.3 km/h 9.3 km/h 53 % 0.0 mm
16:18 23.2 °C 13.1 °C 1019.9 hPa WSW 9.3 km/h 9.3 km/h 53 % 0.0 mm
16:23 23.5 °C 13.4 °C 1019.9 hPa WSW 11.1 km/h 11.1 km/h 53 % 0.0 mm
16:28 23.2 °C 13.1 °C 1019.9 hPa South 9.3 km/h 9.3 km/h 53 % 0.0 mm
16:33 22.8 °C 13.0 °C 1019.9 hPa WSW 11.1 km/h 11.1 km/h 54 % 0.0 mm
16:38 22.8 °C 13.0 °C 1019.9 hPa SW 13.0 km/h 13.0 km/h 54 % 0.0 mm
16:43 23.0 °C 13.2 °C 1019.9 hPa SW 14.8 km/h 14.8 km/h 54 % 0.0 mm
16:48 22.8 °C 13.3 °C 1019.9 hPa SW 5.8 km/h 5.8 km/h 55 % 0.0 mm
16:53 22.7 °C 13.2 °C 1019.9 hPa SW 11.1 km/h 11.1 km/h 55 % 0.0 mm
16:58 22.7 °C 13.2 °C 1019.9 hPa SSE 13.0 km/h 13.0 km/h 55 % 0.0 mm
17:03 24.1 °C 14.2 °C 1019.9 hPa WNW 7.4 km/h 7.4 km/h 54 % 0.0 mm
17:08 23.8 °C 13.9 °C 1019.9 hPa WSW 13.0 km/h 13.0 km/h 54 % 0.0 mm
17:13 23.0 °C 13.2 °C 1019.9 hPa SW 14.8 km/h 14.8 km/h 54 % 0.0 mm
17:18 22.6 °C 13.1 °C 1019.9 hPa WNW 11.1 km/h 11.1 km/h 55 % 0.0 mm
17:23 22.4 °C 13.2 °C 1019.9 hPa SW 12.2 km/h 12.2 km/h 56 % 0.0 mm
17:28 22.2 °C 13.0 °C 1019.9 hPa SSW 12.6 km/h 12.6 km/h 56 % 0.0 mm
17:33 22.1 °C 13.2 °C 1019.9 hPa SW 7.4 km/h 7.4 km/h 57 % 0.0 mm
17:38 22.2 °C 13.3 °C 1019.9 hPa SSW 11.1 km/h 11.1 km/h 57 % 0.0 mm
17:43 22.2 °C 13.3 °C 1019.9 hPa SSW 9.3 km/h 9.3 km/h 57 % 0.0 mm
17:48 22.3 °C 13.4 °C 1019.9 hPa South 9.3 km/h 9.3 km/h 57 % 0.0 mm
17:53 22.3 °C 13.4 °C 1019.9 hPa South 7.4 km/h 7.4 km/h 57 % 0.0 mm
17:58 22.6 °C 13.7 °C 1019.9 hPa SSW 7.4 km/h 7.4 km/h 57 % 0.0 mm
18:03 22.8 °C 13.8 °C 1018.8 hPa South 14.8 km/h 14.8 km/h 57 % 0.0 mm
18:08 22.7 °C 13.7 °C 1018.8 hPa SW 9.3 km/h 9.3 km/h 57 % 0.0 mm
18:13 22.5 °C 13.6 °C 1018.8 hPa SSW 16.7 km/h 16.7 km/h 57 % 0.0 mm
18:14 22.5 °C 13.6 °C 1018.8 hPa WSW 11.1 km/h 11.1 km/h 57 % 0.0 mm
18:19 22.6 °C 13.7 °C 1018.8 hPa WSW 13.0 km/h 13.0 km/h 57 % 0.0 mm
18:24 22.8 °C 13.8 °C 1018.8 hPa SSW 8.7 km/h 8.7 km/h 57 % 0.0 mm
18:29 22.8 °C 13.8 °C 1018.8 hPa SSW 11.1 km/h 11.1 km/h 57 % 0.0 mm
18:34 22.9 °C 13.9 °C 1018.8 hPa WSW 11.1 km/h 11.1 km/h 57 % 0.0 mm
18:39 22.7 °C 13.7 °C 1018.8 hPa SW 5.6 km/h 5.6 km/h 57 % 0.0 mm
18:44 22.4 °C 13.4 °C 1018.8 hPa WSW 13.0 km/h 13.0 km/h 57 % 0.0 mm
18:49 22.5 °C 13.8 °C 1018.8 hPa SSW 6.1 km/h 6.1 km/h 58 % 0.0 mm
18:54 22.3 °C 13.6 °C 1018.8 hPa SW 5.6 km/h 5.8 km/h 58 % 0.0 mm
18:59 21.7 °C 13.3 °C 1018.8 hPa SSW 9.3 km/h 9.3 km/h 59 % 0.0 mm
19:04 21.5 °C 13.2 °C 1018.8 hPa SW 9.3 km/h 9.3 km/h 59 % 0.0 mm
19:09 21.2 °C 13.1 °C 1018.8 hPa SW 13.0 km/h 13.0 km/h 60 % 0.0 mm
19:14 20.8 °C 13.0 °C 1018.8 hPa SSW 11.1 km/h 11.1 km/h 61 % 0.0 mm
19:19 20.8 °C 13.0 °C 1018.8 hPa SW 9.7 km/h 9.7 km/h 61 % 0.0 mm
19:24 20.9 °C 13.3 °C 1018.8 hPa SW 11.9 km/h 11.9 km/h 62 % 0.0 mm
19:29 20.8 °C 13.3 °C 1018.8 hPa SW 7.4 km/h 7.4 km/h 62 % 0.0 mm
19:34 20.8 °C 13.3 °C 1018.8 hPa SW 11.1 km/h 11.1 km/h 62 % 0.0 mm
19:39 20.8 °C 13.5 °C 1018.8 hPa SW 5.6 km/h 5.6 km/h 63 % 0.0 mm
19:44 20.8 °C 13.5 °C 1018.8 hPa SW 13.0 km/h 13.0 km/h 63 % 0.0 mm
19:49 20.7 °C 13.4 °C 1018.8 hPa SW 7.4 km/h 7.4 km/h 63 % 0.0 mm
19:54 20.7 °C 13.4 °C 1018.8 hPa SW 7.4 km/h 7.4 km/h 63 % 0.0 mm
19:59 20.7 °C 13.4 °C 1018.8 hPa SW 7.4 km/h 7.4 km/h 63 % 0.0 mm
20:04 20.5 °C 13.4 °C 1018.8 hPa SW 6.1 km/h 6.1 km/h 64 % 0.0 mm
20:05 20.5 °C 13.4 °C 1018.8 hPa SSE 5.6 km/h 5.6 km/h 64 % 0.0 mm
20:10 20.4 °C 13.3 °C 1018.8 hPa WSW 6.1 km/h 6.1 km/h 64 % 0.0 mm
20:15 20.3 °C 13.3 °C 1018.8 hPa SW 9.3 km/h 9.3 km/h 64 % 0.0 mm
20:20 20.3 °C 13.3 °C 1018.8 hPa SW 5.6 km/h 5.6 km/h 64 % 0.0 mm
20:25 20.2 °C 13.2 °C 1018.8 hPa SSW 7.4 km/h 7.4 km/h 64 % 0.0 mm
20:30 20.1 °C 13.3 °C 1018.8 hPa South 7.4 km/h 7.4 km/h 65 % 0.0 mm
20:35 20.1 °C 13.3 °C 1019.9 hPa SW 9.3 km/h 9.3 km/h 65 % 0.0 mm
20:40 20.0 °C 13.2 °C 1019.9 hPa WSW 5.6 km/h 5.6 km/h 65 % 0.0 mm
20:45 20.0 °C 13.2 °C 1019.9 hPa SSW 3.7 km/h   65 % 0.0 mm
20:50 20.0 °C 13.4 °C 1018.8 hPa SW 2.6 km/h   66 % 0.0 mm
20:55 20.0 °C 13.2 °C 1018.8 hPa SW 5.6 km/h 5.6 km/h 65 % 0.0 mm
21:00 19.9 °C 13.3 °C 1018.8 hPa SSW 5.6 km/h 5.6 km/h 66 % 0.0 mm
21:05 19.7 °C 13.2 °C 1019.9 hPa SSW 7.4 km/h 7.4 km/h 66 % 0.0 mm
21:10 19.6 °C 13.3 °C 1019.9 hPa WSW 9.3 km/h 9.3 km/h 67 % 0.0 mm
21:15 19.5 °C 13.2 °C 1019.9 hPa SW 5.6 km/h 5.6 km/h 67 % 0.0 mm
21:20 19.3 °C 13.2 °C 1019.9 hPa WSW 5.6 km/h 5.6 km/h 68 % 0.0 mm
21:25 19.2 °C 13.2 °C 1019.9 hPa SW 3.7 km/h 3.7 km/h 68 % 0.0 mm
21:30 19.1 °C 13.1 °C 1019.9 hPa SSW 5.6 km/h 5.6 km/h 68 % 0.0 mm
21:35 18.9 °C 13.3 °C 1019.9 hPa SSW 7.4 km/h 7.4 km/h 70 % 0.0 mm
21:40 18.8 °C 13.2 °C 1019.9 hPa SW 3.7 km/h 3.7 km/h 70 % 0.0 mm
21:45 18.7 °C 13.1 °C 1019.9 hPa WSW 3.9 km/h 3.9 km/h 70 % 0.0 mm
21:50 18.6 °C 13.2 °C 1019.9 hPa WSW 5.6 km/h 5.6 km/h 71 % 0.0 mm
21:55 18.6 °C 13.2 °C 1019.9 hPa SW 3.7 km/h 3.7 km/h 71 % 0.0 mm
22:00 18.5 °C 13.3 °C 1019.9 hPa SW 2.3 km/h 2.3 km/h 72 % 0.0 mm
22:05 18.5 °C 13.3 °C 1019.9 hPa WSW 3.7 km/h 3.7 km/h 72 % 0.0 mm
22:10 18.4 °C 13.3 °C 1019.9 hPa SW 3.7 km/h 3.7 km/h 72 % 0.0 mm
22:15 18.4 °C 13.4 °C 1019.9 hPa SW 2.6 km/h   73 % 0.0 mm
22:20 18.3 °C 13.4 °C 1019.9 hPa SW 3.7 km/h 3.7 km/h 73 % 0.0 mm
22:23 18.3 °C 13.4 °C 1019.9 hPa SW 5.6 km/h 5.6 km/h 73 % 0.0 mm
22:28 18.3 °C 13.4 °C 1019.9 hPa SW 1.9 km/h 1.9 km/h 73 % 0.0 mm
22:33 18.2 °C 13.5 °C 1019.9 hPa WSW 1.9 km/h   74 % 0.0 mm
22:43 18.2 °C 13.5 °C 1019.9 hPa SW 1.9 km/h   74 % 0.0 mm
22:48 18.1 °C 13.4 °C 1019.9 hPa SSW 1.9 km/h 1.9 km/h 74 % 0.0 mm
22:53 18.0 °C 13.3 °C 1019.9 hPa WSW 2.6 km/h 2.6 km/h 74 % 0.0 mm
22:58 18.0 °C 13.5 °C 1019.9 hPa WSW 3.2 km/h 3.2 km/h 75 % 0.0 mm
23:03 18.0 °C 13.5 °C 1019.9 hPa WSW 3.7 km/h 3.7 km/h 75 % 0.0 mm
23:08 17.9 °C 13.4 °C 1019.9 hPa WSW 1.9 km/h 1.9 km/h 75 % 0.0 mm
23:13 17.9 °C 13.4 °C 1019.9 hPa SW 3.7 km/h 3.7 km/h 75 % 0.0 mm
23:18 17.9 °C 13.4 °C 1019.9 hPa West 3.7 km/h 3.7 km/h 75 % 0.0 mm
23:23 17.8 °C 13.5 °C 1019.9 hPa WSW 3.7 km/h 3.7 km/h 76 % 0.0 mm
23:28 17.8 °C 13.5 °C 1019.9 hPa WSW 3.7 km/h 3.7 km/h 76 % 0.0 mm
23:33 17.7 °C 13.4 °C 1019.9 hPa WSW 1.9 km/h   76 % 0.0 mm
23:38 17.7 °C 13.4 °C 1019.9 hPa WSW 3.7 km/h 3.7 km/h 76 % 0.0 mm
23:43 17.7 °C 13.6 °C 1019.9 hPa WSW 1.9 km/h 1.9 km/h 77 % 0.0 mm
23:48 17.6 °C 13.5 °C 1019.9 hPa SW 1.9 km/h   77 % 0.0 mm
23:53 17.7 °C 13.6 °C 1019.9 hPa SW 1.9 km/h   77 % 0.0 mm
23:58 17.7 °C 13.8 °C 1019.9 hPa WSW 2.6 km/h 2.6 km/h 78 % 0.0 mm
Meteo Sesrovires
Elogis d' Weather Underground - 3.5 mb

Guio original per  Jim McMurry - jmcmurry@mwt.net Adaptat per a la plantilla per  Wim van der Kuil - Leuven-Template.eu

Trobareu la nostra informacio del temps tambe a:

Weather Underground

AWEKAS